Time;durP1;ratioP1;P1;durP2;ratioP2;P2;SDS_P1;SDS_P2;PMS_P1;PMS_P2;Temp;Humidity;BMP_temperature;BMP_pressure;BME280_temperature;BME280_humidity;BME280_pressure;Samples;Min_cycle;Max_cycle;Signal;HPM_P1;HPM_P2
2023/10/14 00:01:13;;;;;;;2.85;1.90;;;;;;;19.14;50.79;98606.59;5099385;28;20187;-60
2023/10/14 00:03:45;;;;;;;3.72;1.60;;;;;;;19.11;50.49;98584.13;5111624;28;20187;-60
2023/10/14 00:06:12;;;;;;;4.50;1.98;;;;;;;19.40;49.85;98620.59;5111753;28;20637;-59
2023/10/14 00:08:49;;;;;;;4.18;2.05;;;;;;;19.25;50.04;98601.13;5111032;28;20254;-59
2023/10/14 00:11:15;;;;;;;3.00;2.10;;;;;;;19.16;50.39;98586.28;5111361;28;20641;-59
2023/10/14 00:13:42;;;;;;;4.93;1.92;;;;;;;19.18;50.67;98602.72;5111609;28;20194;-59
2023/10/14 00:16:11;;;;;;;5.03;2.00;;;;;;;19.19;50.65;98612.22;5111631;28;20174;-59
2023/10/14 00:18:42;;;;;;;2.70;2.00;;;;;;;19.17;50.20;98608.94;5111424;28;20196;-59
2023/10/14 00:21:11;;;;;;;2.13;1.90;;;;;;;19.07;50.34;98577.53;5111427;28;20629;-59
2023/10/14 00:23:36;;;;;;;2.17;2.05;;;;;;;19.10;50.32;98586.88;5111450;28;20171;-59
2023/10/14 00:26:03;;;;;;;4.25;2.45;;;;;;;18.92;50.56;98570.38;5111394;28;20175;-59
2023/10/14 00:28:28;;;;;;;4.07;2.08;;;;;;;18.90;51.00;98570.56;5111091;28;20534;-59
2023/10/14 00:30:55;;;;;;;3.35;2.00;;;;;;;18.93;51.38;98590.38;5111374;28;20182;-59
2023/10/14 00:33:21;;;;;;;2.38;2.17;;;;;;;18.85;51.46;98592.94;5111393;28;20179;-59
2023/10/14 00:35:46;;;;;;;5.10;2.22;;;;;;;18.88;51.04;98592.66;5111493;28;20174;-59
2023/10/14 00:38:15;;;;;;;3.00;1.98;;;;;;;18.70;51.26;98568.22;5111516;28;20739;-59
2023/10/14 00:40:45;;;;;;;3.92;2.10;;;;;;;18.74;51.58;98580.91;5111397;28;20202;-59
2023/10/14 00:43:11;;;;;;;2.63;1.95;;;;;;;18.69;51.80;98571.84;5111465;28;20287;-59
2023/10/14 00:45:43;;;;;;;2.13;1.70;;;;;;;18.67;51.63;98563.31;5111252;28;20220;-59
2023/10/14 00:48:13;;;;;;;2.65;2.00;;;;;;;18.73;51.79;98568.78;5111442;28;20171;-59
2023/10/14 00:50:41;;;;;;;2.63;1.77;;;;;;;18.60;51.72;98536.06;5111561;28;20249;-59
2023/10/14 00:53:07;;;;;;;3.72;2.13;;;;;;;18.86;51.51;98563.97;5111355;28;20175;-59
2023/10/14 00:55:45;;;;;;;5.78;1.77;;;;;;;18.47;51.91;98512.84;5111343;28;20171;-59
2023/10/14 00:58:20;;;;;;;1.95;1.83;;;;;;;18.73;52.47;98557.47;5111381;28;20183;-59
2023/10/14 01:00:56;;;;;;;4.88;2.38;;;;;;;18.77;52.13;98559.63;5111369;28;20252;-59
2023/10/14 01:03:26;;;;;;;2.88;2.17;;;;;;;18.52;51.88;98515.84;5111417;28;20183;-59
2023/10/14 01:05:56;;;;;;;3.40;1.90;;;;;;;18.59;51.76;98529.19;5108565;28;20183;-59
2023/10/14 01:08:26;;;;;;;6.88;2.20;;;;;;;18.63;51.79;98535.75;5108688;28;20226;-59
2023/10/14 01:10:52;;;;;;;5.47;2.35;;;;;;;18.44;51.92;98531.50;5108759;28;20664;-59
2023/10/14 01:13:22;;;;;;;2.40;2.20;;;;;;;18.31;52.08;98519.72;5108538;28;20199;-59
2023/10/14 01:15:51;;;;;;;4.32;2.20;;;;;;;18.25;52.29;98515.09;5108768;28;20194;-59
2023/10/14 01:18:17;;;;;;;4.13;2.03;;;;;;;18.44;52.63;98541.16;5109129;28;20260;-59
2023/10/14 01:20:43;;;;;;;2.33;2.00;;;;;;;18.25;52.49;98504.63;5071549;28;20706;-59
2023/10/14 01:23:14;;;;;;;2.80;1.95;;;;;;;18.17;52.91;98507.16;5071812;28;20194;-59
2023/10/14 01:26:03;;;;;;;4.32;1.70;;;;;;;18.10;53.08;98501.69;5071728;28;20191;-59
2023/10/14 01:28:32;;;;;;;4.63;2.00;;;;;;;18.27;53.19;98537.56;5071624;28;20686;-59
2023/10/14 01:33:50;;;;;;;3.45;2.33;;;;;;;18.14;53.86;98534.44;5071775;28;20176;-59
2023/10/14 01:36:15;;;;;;;4.53;1.95;;;;;;;17.98;54.32;98505.50;5066355;28;20659;-59
2023/10/14 01:38:48;;;;;;;6.50;2.10;;;;;;;18.12;53.21;98518.06;5051414;28;20185;-59
2023/10/14 01:41:14;;;;;;;2.75;1.98;;;;;;;18.08;52.85;98497.59;5051582;28;20210;-59
2023/10/14 01:43:39;;;;;;;5.00;2.03;;;;;;;17.91;53.16;98486.13;5051427;28;20188;-59
2023/10/14 01:46:09;;;;;;;3.85;2.08;;;;;;;17.88;53.47;98485.59;5051391;28;20268;-59
2023/10/14 01:48:38;;;;;;;2.25;1.83;;;;;;;18.15;53.78;98520.41;5051309;28;20177;-59
2023/10/14 01:51:04;;;;;;;3.97;2.00;;;;;;;17.98;53.97;98499.44;5066190;28;20183;-59
2023/10/14 01:53:34;;;;;;;3.65;2.10;;;;;;;17.92;54.33;98500.88;5114315;28;20205;-59
2023/10/14 01:56:01;;;;;;;2.35;2.00;;;;;;;17.83;54.36;98488.66;5114493;28;20164;-59
2023/10/14 01:58:32;;;;;;;6.43;1.88;;;;;;;17.88;54.45;98501.28;5071007;28;20231;-59
2023/10/14 02:03:40;;;;;;;3.80;2.33;;;;;;;18.01;54.60;98517.50;5071284;28;20203;-59
2023/10/14 02:06:11;;;;;;;3.42;2.00;;;;;;;17.77;54.90;98477.97;5071207;28;20591;-59
2023/10/14 02:08:37;;;;;;;2.70;2.05;;;;;;;17.85;54.74;98491.13;5071096;28;20963;-59
2023/10/14 02:11:04;;;;;;;6.18;2.22;;;;;;;17.71;55.05;98474.13;5071348;28;20176;-59
2023/10/14 02:13:29;;;;;;;4.53;2.03;;;;;;;17.85;55.19;98515.50;5070670;28;20647;-59
2023/10/14 02:15:59;;;;;;;2.45;2.15;;;;;;;17.56;55.54;98472.19;5071296;28;20173;-59
2023/10/14 02:18:25;;;;;;;3.10;2.00;;;;;;;17.73;55.28;98500.16;5070843;28;20192;-59
2023/10/14 02:23:44;;;;;;;7.00;2.15;;;;;;;17.63;56.30;98507.25;5071237;28;20257;-59
2023/10/14 02:26:53;;;;;;;3.13;2.10;;;;;;;17.66;56.58;98509.59;5070850;28;20706;-59
2023/10/14 02:29:15;;;;;;;7.63;2.08;;;;;;;17.63;56.23;98494.16;5085950;28;20675;-59
2023/10/14 02:31:43;;;;;;;3.38;1.70;;;;;;;17.61;56.33;98496.13;5113249;28;20182;-59
2023/10/14 02:34:09;;;;;;;6.65;2.10;;;;;;;17.67;56.60;98503.38;5113762;28;20190;-59
2023/10/14 02:36:41;;;;;;;3.92;2.10;;;;;;;17.77;56.42;98509.38;5113782;28;20167;-59
2023/10/14 02:39:16;;;;;;;3.20;2.03;;;;;;;17.70;56.58;98514.38;5113544;28;20202;-59
2023/10/14 02:41:58;;;;;;;3.03;1.80;;;;;;;17.56;56.43;98488.69;5113518;28;20249;-59
2023/10/14 02:44:32;;;;;;;4.80;2.15;;;;;;;17.55;56.17;98471.34;5113538;28;20179;-59
2023/10/14 02:47:05;;;;;;;3.80;2.33;;;;;;;17.62;55.97;98501.22;5113464;28;20178;-59
2023/10/14 02:49:37;;;;;;;2.45;2.25;;;;;;;17.68;55.93;98502.41;5113353;28;20183;-59
2023/10/14 02:52:18;;;;;;;2.90;1.63;;;;;;;17.57;56.01;98492.13;5113290;28;20217;-59
2023/10/14 02:54:54;;;;;;;3.40;1.77;;;;;;;17.59;56.77;98492.78;5113253;28;20171;-59
2023/10/14 02:57:25;;;;;;;6.28;2.53;;;;;;;17.52;57.26;98491.75;5113288;28;20178;-59
2023/10/14 02:59:55;;;;;;;5.70;1.90;;;;;;;17.39;57.49;98486.88;5113101;28;20211;-59
2023/10/14 03:07:28;;;;;;;5.57;1.90;;;;;;;17.38;58.12;98513.16;5113144;28;20175;-59
2023/10/14 03:10:34;;;;;;;3.65;2.03;;;;;;;17.22;58.57;98489.38;5113181;28;20187;-59
2023/10/14 03:12:59;;;;;;;3.60;2.30;;;;;;;17.17;58.48;98474.13;5112457;28;20548;-59
2023/10/14 03:15:27;;;;;;;4.53;2.42;;;;;;;17.00;58.90;98474.06;5113226;28;20236;-58
2023/10/14 03:18:01;;;;;;;3.85;2.45;;;;;;;16.94;59.06;98470.22;5112441;28;20568;-59
2023/10/14 03:25:43;;;;;;;3.85;2.97;;;;;;;17.19;58.72;98497.53;5112705;28;20183;-59
2023/10/14 03:28:13;;;;;;;3.85;2.00;;;;;;;16.89;58.43;98455.94;5112530;28;20702;-59
2023/10/14 03:30:46;;;;;;;4.53;2.75;;;;;;;16.90;58.64;98460.22;5112507;28;20554;-60
2023/10/14 03:33:20;;;;;;;4.50;2.30;;;;;;;17.04;57.74;98483.28;5112474;28;20172;-60
2023/10/14 03:36:05;;;;;;;3.13;2.25;;;;;;;17.19;57.19;98503.56;5112388;28;20174;-60
2023/10/14 03:41:10;;;;;;;3.90;2.28;;;;;;;16.97;57.98;98482.19;5112324;28;20257;-60
2023/10/14 03:46:24;;;;;;;3.08;2.15;;;;;;;16.79;59.07;98470.84;5112317;28;20175;-60
2023/10/14 03:48:56;;;;;;;5.25;2.42;;;;;;;16.74;59.17;98476.47;5112411;28;20182;-60
2023/10/14 03:51:25;;;;;;;5.50;1.90;;;;;;;16.70;59.65;98474.28;5112178;28;20183;-60
2023/10/14 03:53:52;;;;;;;5.38;2.10;;;;;;;16.74;59.56;98476.47;5112027;28;20227;-60
2023/10/14 03:56:29;;;;;;;3.35;2.05;;;;;;;16.88;59.04;98481.25;5111981;28;20175;-60
2023/10/14 03:58:57;;;;;;;2.28;1.80;;;;;;;16.87;58.79;98461.31;5112045;28;20198;-58
2023/10/14 04:01:45;;;;;;;3.15;2.03;;;;;;;17.00;58.94;98489.75;5111882;28;20179;-58
2023/10/14 04:04:17;;;;;;;2.33;2.13;;;;;;;16.96;58.26;98480.56;5112051;28;20176;-58
2023/10/14 04:07:28;;;;;;;2.22;2.03;;;;;;;16.91;58.53;98462.66;5111270;28;20186;-58
2023/10/14 04:12:09;;;;;;;4.35;2.33;;;;;;;16.98;58.45;98484.69;5068877;28;20206;-59
2023/10/14 04:14:39;;;;;;;4.25;2.20;;;;;;;17.00;58.76;98487.13;5068586;28;20220;-58
2023/10/14 04:17:20;;;;;;;5.03;1.92;;;;;;;16.96;58.80;98496.25;5068728;28;20189;-58
2023/10/14 04:19:58;;;;;;;4.82;2.28;;;;;;;16.90;58.96;98486.34;5068526;28;20215;-59
2023/10/14 04:24:50;;;;;;;4.30;2.47;;;;;;;16.86;59.11;98498.06;5068619;28;20246;-59
2023/10/14 04:29:58;;;;;;;4.88;2.50;;;;;;;16.84;59.46;98492.16;5068583;28;20188;-59
2023/10/14 04:32:41;;;;;;;5.10;2.40;;;;;;;16.71;59.26;98470.72;5068560;28;20187;-59
2023/10/14 04:35:07;;;;;;;6.75;2.50;;;;;;;16.55;60.03;98460.03;5068342;28;20193;-60
2023/10/14 04:37:50;;;;;;;4.10;1.80;;;;;;;16.82;59.64;98504.50;5068482;28;20279;-59
2023/10/14 04:45:57;;;;;;;3.35;2.38;;;;;;;16.89;58.89;98505.59;5028456;28;20198;-59
2023/10/14 04:48:35;;;;;;;6.57;2.13;;;;;;;16.78;58.98;98495.31;5028608;28;20682;-60
2023/10/14 04:51:07;;;;;;;2.88;2.15;;;;;;;16.83;59.34;98495.72;5028354;28;20232;-59
2023/10/14 04:53:33;;;;;;;3.58;2.22;;;;;;;16.92;59.39;98494.88;5029445;28;20734;-59
2023/10/14 04:56:04;;;;;;;3.50;2.20;;;;;;;16.74;59.24;98486.91;5032664;28;20178;-60
2023/10/14 04:58:32;;;;;;;5.22;2.45;;;;;;;16.76;60.28;98505.09;5032492;28;20189;-59
2023/10/14 05:01:03;;;;;;;7.70;3.25;;;;;;;16.63;60.64;98492.34;5032418;28;20213;-59
2023/10/14 05:03:29;;;;;;;9.55;2.50;;;;;;;16.43;61.54;98493.31;5032515;28;20292;-59
2023/10/14 05:05:56;;;;;;;3.72;2.25;;;;;;;16.46;61.37;98502.66;5032408;28;20208;-59
2023/10/14 05:08:23;;;;;;;3.42;2.25;;;;;;;16.41;60.96;98473.53;5032444;28;20228;-59
2023/10/14 05:10:53;;;;;;;4.20;2.33;;;;;;;16.68;61.01;98524.06;5032358;28;20361;-59
2023/10/14 05:13:25;;;;;;;2.90;1.98;;;;;;;16.60;60.97;98497.84;5032051;28;20275;-59
2023/10/14 05:16:03;;;;;;;3.67;2.40;;;;;;;16.75;60.85;98525.19;5032029;28;20186;-59
2023/10/14 05:18:29;;;;;;;4.75;2.38;;;;;;;16.78;60.60;98511.81;5031861;28;20221;-59
2023/10/14 05:21:20;;;;;;;4.00;2.38;;;;;;;16.88;60.73;98527.47;5031643;28;20525;-59
2023/10/14 05:23:46;;;;;;;4.47;2.13;;;;;;;16.88;59.73;98509.19;5100970;28;20196;-59
2023/10/14 05:26:14;;;;;;;5.25;2.58;;;;;;;16.78;59.58;98487.47;5114631;28;20178;-60
2023/10/14 05:28:42;;;;;;;2.78;2.50;;;;;;;16.85;59.34;98493.78;5071496;28;20673;-60
2023/10/14 05:31:10;;;;;;;5.93;2.13;;;;;;;16.97;59.68;98522.22;5071567;28;20228;-60
2023/10/14 05:33:36;;;;;;;3.80;2.00;;;;;;;16.92;59.06;98515.78;5071820;28;20211;-59
2023/10/14 05:36:01;;;;;;;6.22;2.35;;;;;;;16.75;59.23;98498.22;5071550;28;20176;-59
2023/10/14 05:38:28;;;;;;;8.10;2.67;;;;;;;16.93;59.53;98533.94;5071447;28;20655;-59
2023/10/14 05:40:56;;;;;;;4.85;2.22;;;;;;;16.97;59.84;98537.09;5071219;28;20208;-59
2023/10/14 05:43:25;;;;;;;3.30;2.22;;;;;;;16.73;59.80;98508.00;5071667;28;20196;-59
2023/10/14 05:45:54;;;;;;;7.70;2.58;;;;;;;17.05;59.70;98547.66;5071312;28;20178;-59
2023/10/14 05:48:27;;;;;;;3.15;2.22;;;;;;;17.03;59.22;98537.34;5071345;28;20197;-60
2023/10/14 05:50:56;;;;;;;2.60;2.30;;;;;;;17.07;58.67;98524.78;5071292;28;20183;-59
2023/10/14 05:53:25;;;;;;;4.38;2.50;;;;;;;17.08;59.04;98516.81;5071242;28;20173;-59
2023/10/14 05:55:58;;;;;;;4.45;2.30;;;;;;;17.05;58.77;98501.44;5071106;28;20180;-59
2023/10/14 05:58:28;;;;;;;5.40;2.78;;;;;;;17.32;58.19;98545.91;5071229;28;20789;-59
2023/10/14 06:00:54;;;;;;;2.35;2.00;;;;;;;17.33;58.42;98541.50;5113729;28;20690;-60
2023/10/14 06:03:20;;;;;;;3.72;2.90;;;;;;;17.33;58.45;98531.88;5114140;28;20575;-60
2023/10/14 06:05:45;;;;;;;3.33;2.58;;;;;;;17.34;58.50;98519.63;5113024;28;20163;-60
2023/10/14 06:08:16;;;;;;;3.10;2.20;;;;;;;17.31;57.92;98506.84;5114095;28;20178;-60
2023/10/14 06:10:42;;;;;;;2.10;2.00;;;;;;;17.41;57.26;98512.88;5113927;28;20182;-60
2023/10/14 06:13:12;;;;;;;3.33;2.28;;;;;;;17.50;56.82;98494.50;5114155;28;20203;-60
2023/10/14 06:15:41;;;;;;;2.40;2.05;;;;;;;17.64;56.60;98519.34;5113909;28;20263;-60
2023/10/14 06:18:13;;;;;;;2.20;2.00;;;;;;;17.63;56.68;98496.78;5113857;28;20529;-60
2023/10/14 06:20:41;;;;;;;6.22;2.50;;;;;;;17.76;56.27;98505.09;5070414;28;20236;-60
2023/10/14 06:23:08;;;;;;;4.00;2.10;;;;;;;18.03;56.15;98533.88;5070667;28;20637;-60
2023/10/14 06:25:36;;;;;;;3.40;2.20;;;;;;;18.10;55.83;98527.06;5070596;28;20238;-60
2023/10/14 06:28:03;;;;;;;9.07;2.25;;;;;;;18.17;55.57;98530.72;5070622;28;20521;-60
2023/10/14 06:30:28;;;;;;;3.13;2.03;;;;;;;18.09;55.65;98499.22;5070820;28;20188;-60
2023/10/14 06:33:03;;;;;;;6.38;2.65;;;;;;;18.28;54.98;98520.00;5070519;28;20195;-60
2023/10/14 06:35:33;;;;;;;7.03;2.42;;;;;;;18.23;55.00;98511.78;5070484;28;20263;-60
2023/10/14 06:37:59;;;;;;;3.20;2.15;;;;;;;18.33;54.20;98508.16;5070460;28;20279;-60
2023/10/14 06:40:32;;;;;;;2.55;2.10;;;;;;;18.45;54.56;98512.19;5050175;28;21346;-59
2023/10/14 06:43:00;;;;;;;4.75;2.50;;;;;;;18.29;54.76;98480.59;5050261;28;20208;-59
2023/10/14 06:45:31;;;;;;;4.82;2.95;;;;;;;18.44;54.89;98494.84;5050220;28;20557;-59
2023/10/14 06:48:03;;;;;;;5.72;2.30;;;;;;;18.53;54.37;98491.28;5050284;28;20712;-59
2023/10/14 06:50:30;;;;;;;4.85;2.42;;;;;;;18.60;54.10;98491.50;5050870;28;20285;-59
2023/10/14 06:52:58;;;;;;;4.90;2.70;;;;;;;18.92;53.94;98523.19;5090332;28;20662;-60
2023/10/14 06:55:42;;;;;;;8.60;2.40;;;;;;;19.05;53.31;98505.25;5090451;28;20225;-60
2023/10/14 06:58:11;;;;;;;9.02;2.50;;;;;;;19.30;52.90;98535.91;5090272;28;20188;-59
2023/10/14 07:00:38;;;;;;;7.93;2.58;;;;;;;19.46;52.39;98523.66;5090116;28;21264;-59
2023/10/14 07:03:12;;;;;;;5.75;2.95;;;;;;;19.53;52.07;98529.13;5090084;28;20203;-59
2023/10/14 07:05:48;;;;;;;7.35;2.92;;;;;;;19.42;52.18;98493.47;5090124;28;20242;-59
2023/10/14 07:08:19;;;;;;;5.38;2.75;;;;;;;19.59;51.91;98507.50;5090076;28;20184;-59
2023/10/14 07:10:47;;;;;;;4.15;2.35;;;;;;;19.62;52.30;98499.28;5089885;28;20650;-59
2023/10/14 07:13:13;;;;;;;3.28;2.20;;;;;;;19.63;51.99;98499.13;5089648;28;20195;-59
2023/10/14 07:15:41;;;;;;;4.38;2.60;;;;;;;19.71;51.97;98506.22;5029992;28;20283;-60
2023/10/14 07:18:08;;;;;;;5.03;2.60;;;;;;;19.84;51.88;98509.19;5041597;28;20192;-60
2023/10/14 07:20:34;;;;;;;3.05;2.28;;;;;;;19.97;51.70;98523.53;5049386;28;20251;-60
2023/10/14 07:23:02;;;;;;;5.38;2.40;;;;;;;19.80;51.61;98487.69;5049448;28;20202;-60
2023/10/14 07:25:34;;;;;;;3.72;2.33;;;;;;;19.94;51.78;98486.25;5049484;28;20201;-60
2023/10/14 07:28:01;;;;;;;6.45;2.35;;;;;;;20.18;51.52;98517.84;5029433;28;20685;-60
2023/10/14 07:30:27;;;;;;;5.63;2.92;;;;;;;20.31;51.48;98518.19;5029366;28;20487;-60
2023/10/14 07:32:54;;;;;;;7.15;3.85;;;;;;;20.28;50.71;98502.75;5029373;28;20594;-60
2023/10/14 07:35:21;;;;;;;9.68;4.30;;;;;;;20.26;50.54;98484.50;5029442;28;20189;-60
2023/10/14 07:37:51;;;;;;;9.30;3.83;;;;;;;20.41;50.53;98490.75;5029408;28;20186;-59
2023/10/14 07:40:23;;;;;;;9.90;3.92;;;;;;;20.65;50.69;98518.84;5029189;28;20212;-60
2023/10/14 07:43:04;;;;;;;8.52;4.10;;;;;;;20.78;49.71;98513.91;5029282;28;20217;-60
2023/10/14 07:45:33;;;;;;;11.07;3.75;;;;;;;20.90;49.25;98513.44;5030305;28;20682;-60
2023/10/14 07:48:00;;;;;;;8.20;4.15;;;;;;;21.01;48.63;98515.72;5069055;28;20184;-60
2023/10/14 07:50:31;;;;;;;8.20;3.92;;;;;;;20.95;48.55;98492.72;5009133;28;21541;-60
2023/10/14 07:53:07;;;;;;;10.82;4.72;;;;;;;20.93;48.72;98478.06;4950854;29;20275;-59
2023/10/14 07:55:38;;;;;;;9.27;4.63;;;;;;;21.00;48.50;98476.41;4950986;29;20196;-59
2023/10/14 07:58:08;;;;;;;12.57;4.90;;;;;;;21.21;47.95;98506.44;4955880;28;20715;-59
2023/10/14 08:00:39;;;;;;;13.50;4.63;;;;;;;21.24;48.26;98503.50;4989499;28;20223;-59
2023/10/14 08:03:14;;;;;;;10.40;4.82;;;;;;;21.23;48.02;98493.13;4989641;28;20178;-59
2023/10/14 08:05:41;;;;;;;13.65;5.57;;;;;;;21.38;47.58;98499.34;4969941;28;20278;-59
2023/10/14 08:08:09;;;;;;;10.75;5.15;;;;;;;21.55;47.10;98511.41;4970115;28;20195;-59
2023/10/14 08:10:35;;;;;;;10.32;4.95;;;;;;;21.60;47.25;98509.09;4969853;28;20204;-59
2023/10/14 08:13:04;;;;;;;16.42;5.93;;;;;;;21.65;46.65;98509.41;4969805;28;20209;-59
2023/10/14 08:15:34;;;;;;;10.70;5.30;;;;;;;21.62;46.21;98488.69;4969932;28;20188;-59
2023/10/14 08:18:00;;;;;;;8.00;5.43;;;;;;;21.61;46.24;98489.69;4969928;28;20188;-59
2023/10/14 08:20:28;;;;;;;9.23;5.00;;;;;;;21.65;46.27;98481.25;4975606;28;20238;-59
2023/10/14 08:22:54;;;;;;;11.13;4.82;;;;;;;21.56;47.01;98468.31;5028765;28;20260;-59
2023/10/14 08:25:21;;;;;;;9.77;4.95;;;;;;;21.66;46.84;98472.38;5028860;28;20281;-59
2023/10/14 08:27:46;;;;;;;9.75;5.25;;;;;;;21.90;46.17;98495.97;5028179;28;20186;-59
2023/10/14 08:30:12;;;;;;;8.15;4.90;;;;;;;21.88;46.24;98486.59;5045312;28;20192;-59
2023/10/14 08:32:41;;;;;;;12.20;4.85;;;;;;;21.98;46.08;98498.53;5068296;28;20176;-59
2023/10/14 08:35:17;;;;;;;10.02;4.53;;;;;;;21.94;45.80;98475.34;5068339;28;20176;-59
2023/10/14 08:37:47;;;;;;;10.60;4.50;;;;;;;22.02;46.05;98476.13;5068212;28;20188;-59
2023/10/14 08:40:19;;;;;;;11.13;4.85;;;;;;;22.17;46.42;98490.19;5068281;28;20650;-59
2023/10/14 08:43:06;;;;;;;12.15;4.30;;;;;;;22.26;46.04;98490.97;5068349;28;20730;-59
2023/10/14 08:45:38;;;;;;;12.48;4.50;;;;;;;22.27;45.48;98471.50;5068188;28;20235;-59
2023/10/14 08:48:05;;;;;;;15.23;4.50;;;;;;;22.40;45.32;98482.28;5068491;28;20188;-58
2023/10/14 08:50:34;;;;;;;8.95;3.90;;;;;;;22.04;45.35;98452.25;5068197;28;20645;-60
2023/10/14 08:53:05;;;;;;;12.95;4.75;;;;;;;22.21;45.59;98469.56;5047927;28;20236;-60
2023/10/14 08:55:34;;;;;;;11.20;4.50;;;;;;;22.17;45.74;98447.19;5048085;28;20191;-60
2023/10/14 08:58:05;;;;;;;17.23;4.88;;;;;;;22.39;45.03;98462.19;5048228;28;20185;-60
2023/10/14 09:00:39;;;;;;;11.38;4.30;;;;;;;22.38;45.08;98448.16;5048122;28;20255;-60
2023/10/14 09:03:06;;;;;;;7.43;4.20;;;;;;;22.42;45.30;98448.63;5008373;28;20240;-60
2023/10/14 09:05:44;;;;;;;13.35;4.80;;;;;;;22.60;45.71;98467.66;5008441;28;20191;-60
2023/10/14 09:08:15;;;;;;;13.07;5.13;;;;;;;22.58;45.21;98459.91;5019508;28;20204;-60
2023/10/14 09:10:42;;;;;;;16.40;4.78;;;;;;;22.67;44.79;98453.53;5048113;28;20231;-60
2023/10/14 09:13:10;;;;;;;12.60;4.68;;;;;;;22.78;44.41;98449.66;4988364;28;20203;-60
2023/10/14 09:15:41;;;;;;;10.93;4.45;;;;;;;22.57;44.59;98413.44;4988842;28;20693;-60
2023/10/14 09:18:16;;;;;;;14.48;4.28;;;;;;;22.84;45.16;98454.22;4988622;28;20203;-60
2023/10/14 09:20:42;;;;;;;10.95;4.65;;;;;;;22.87;44.84;98448.56;4988633;28;20309;-60
2023/10/14 09:23:23;;;;;;;10.13;3.95;;;;;;;22.72;45.10;98413.44;4988423;28;20294;-60
2023/10/14 09:25:50;;;;;;;9.05;4.03;;;;;;;23.02;45.41;98437.00;4988678;28;20183;-60
2023/10/14 09:28:21;;;;;;;10.23;4.32;;;;;;;23.06;44.64;98426.88;4988568;28;20191;-60
2023/10/14 09:30:51;;;;;;;8.77;3.78;;;;;;;23.06;45.04;98413.69;4988785;28;20618;-60
2023/10/14 09:33:19;;;;;;;10.27;4.57;;;;;;;23.19;44.75;98427.13;5000100;28;20193;-60
2023/10/14 09:35:50;;;;;;;13.45;6.30;;;;;;;23.09;44.41;98392.22;5047664;28;20268;-60
2023/10/14 09:38:22;;;;;;;10.77;7.03;;;;;;;23.21;44.48;98388.13;5047762;28;20657;-60
2023/10/14 09:40:57;;;;;;;6.10;3.75;;;;;;;23.34;44.31;98401.50;5050586;28;20204;-60
2023/10/14 09:43:24;;;;;;;8.68;4.00;;;;;;;23.42;43.61;98396.91;5063881;28;20183;-59
2023/10/14 09:45:57;;;;;;;9.77;3.95;;;;;;;23.32;43.67;98363.91;5114242;28;20163;-59
2023/10/14 09:48:29;;;;;;;8.38;3.40;;;;;;;23.42;43.87;98375.78;5114223;28;20278;-59
2023/10/14 09:50:56;;;;;;;11.45;3.55;;;;;;;23.36;43.27;98351.97;5114345;28;20213;-60
2023/10/14 09:53:28;;;;;;;8.63;4.15;;;;;;;23.45;43.29;98353.47;5114308;28;20278;-60
2023/10/14 09:56:07;;;;;;;10.85;4.18;;;;;;;23.57;44.04;98357.25;5114370;28;20644;-59
2023/10/14 09:58:34;;;;;;;7.20;3.42;;;;;;;23.52;42.90;98343.78;5114174;28;20206;-60
2023/10/14 10:01:04;;;;;;;6.50;3.85;;;;;;;23.69;42.73;98370.59;5113982;28;20218;-59
2023/10/14 10:03:37;;;;;;;7.90;3.55;;;;;;;23.59;42.97;98321.72;5114127;28;20171;-59
2023/10/14 10:06:13;;;;;;;6.82;3.83;;;;;;;23.94;43.13;98360.50;5114103;28;20173;-60
2023/10/14 10:08:58;;;;;;;9.70;3.72;;;;;;;24.01;42.87;98350.78;5113917;28;20262;-61
2023/10/14 10:11:24;;;;;;;13.38;4.13;;;;;;;24.03;42.78;98327.66;5113903;28;20586;-59
2023/10/14 10:13:53;;;;;;;5.47;3.47;;;;;;;24.25;41.70;98343.28;5113988;28;20247;-59
2023/10/14 10:16:22;;;;;;;7.00;3.50;;;;;;;24.25;42.07;98323.94;5113909;28;20171;-59
2023/10/14 10:18:51;;;;;;;9.18;4.10;;;;;;;24.41;42.00;98335.06;5113720;28;20186;-59
2023/10/14 10:21:18;;;;;;;9.70;4.18;;;;;;;24.54;41.58;98329.00;5113692;28;20582;-59
2023/10/14 10:23:44;;;;;;;5.28;3.40;;;;;;;24.55;40.73;98318.22;5113597;28;20208;-59
2023/10/14 10:26:12;;;;;;;5.85;3.45;;;;;;;24.52;41.31;98284.25;5113714;28;20326;-59
2023/10/14 10:28:39;;;;;;;7.88;3.33;;;;;;;24.80;40.26;98297.44;5113643;28;20254;-59
2023/10/14 10:31:07;;;;;;;11.07;3.20;;;;;;;25.10;40.14;98314.66;5113652;28;20657;-59
2023/10/14 10:33:45;;;;;;;5.65;3.25;;;;;;;25.12;39.60;98318.75;5113458;28;20179;-59
2023/10/14 10:36:13;;;;;;;9.85;3.75;;;;;;;25.01;39.72;98276.94;5113433;28;20194;-59
2023/10/14 10:38:39;;;;;;;5.93;3.40;;;;;;;25.27;39.19;98306.19;5113306;28;20186;-59
2023/10/14 10:41:24;;;;;;;7.40;3.17;;;;;;;25.39;39.37;98296.66;5113370;28;20198;-58
2023/10/14 10:44:01;;;;;;;9.27;3.30;;;;;;;25.38;38.45;98271.16;5113352;28;20171;-62
2023/10/14 10:46:46;;;;;;;10.35;3.35;;;;;;;25.50;38.78;98272.22;5113356;28;20729;-59
2023/10/14 10:49:16;;;;;;;7.50;3.42;;;;;;;25.65;38.48;98275.47;5113240;28;20201;-59
2023/10/14 10:51:52;;;;;;;5.90;3.50;;;;;;;25.82;38.18;98276.69;5112709;28;20182;-59
2023/10/14 10:54:22;;;;;;;7.57;3.60;;;;;;;25.88;38.39;98273.22;5113269;28;20183;-60
2023/10/14 10:56:47;;;;;;;6.13;3.30;;;;;;;25.95;38.50;98265.31;5113113;28;20202;-60
2023/10/14 10:59:14;;;;;;;8.23;3.38;;;;;;;25.96;37.99;98257.13;5113056;28;20223;-60
2023/10/14 11:01:40;;;;;;;4.50;3.15;;;;;;;26.15;37.96;98260.78;5112694;28;20531;-60
2023/10/14 11:04:12;;;;;;;10.90;3.15;;;;;;;26.15;37.84;98251.00;5112920;28;20208;-60
2023/10/14 11:06:38;;;;;;;6.90;3.40;;;;;;;26.28;37.50;98250.97;5113009;28;20179;-60
2023/10/14 11:09:04;;;;;;;7.28;3.70;;;;;;;26.38;37.58;98243.41;5113176;28;20581;-60
2023/10/14 11:11:34;;;;;;;8.85;4.03;;;;;;;26.32;37.04;98254.03;5112701;28;20175;-60
2023/10/14 11:14:00;;;;;;;6.00;3.30;;;;;;;26.24;37.17;98220.56;5112790;28;20247;-60
2023/10/14 11:16:29;;;;;;;8.70;3.00;;;;;;;26.30;37.15;98219.72;5112832;28;20171;-60
2023/10/14 11:18:56;;;;;;;8.52;3.20;;;;;;;26.51;37.12;98235.41;5112584;28;20175;-60
2023/10/14 11:21:27;;;;;;;3.55;2.90;;;;;;;26.60;36.92;98234.16;5109869;28;20195;-60
2023/10/14 11:23:54;;;;;;;9.85;3.63;;;;;;;26.39;37.25;98189.31;5109967;28;20187;-60
2023/10/14 11:26:19;;;;;;;8.70;3.90;;;;;;;26.52;36.49;98202.53;5089348;28;20623;-60
2023/10/14 11:28:45;;;;;;;9.85;3.45;;;;;;;26.60;37.10;98197.00;5089615;28;20278;-60
2023/10/14 11:31:14;;;;;;;9.05;3.58;;;;;;;26.38;36.44;98187.69;5089524;28;20188;-60
2023/10/14 11:33:45;;;;;;;15.07;3.63;;;;;;;26.53;36.64;98201.50;5089480;28;20268;-58
2023/10/14 11:36:18;;;;;;;6.88;3.65;;;;;;;26.42;37.07;98175.59;5089513;28;20184;-59
2023/10/14 11:38:46;;;;;;;9.98;3.50;;;;;;;26.70;37.11;98201.88;5089424;28;20658;-59
2023/10/14 11:41:13;;;;;;;3.53;3.22;;;;;;;26.49;37.11;98170.28;5089190;28;20222;-59
2023/10/14 11:43:45;;;;;;;8.02;3.47;;;;;;;26.66;36.14;98206.75;5089371;28;20188;-59
2023/10/14 11:46:11;;;;;;;7.65;3.55;;;;;;;26.48;35.83;98188.03;5048958;28;20189;-59
2023/10/14 11:48:38;;;;;;;7.32;3.72;;;;;;;26.57;36.56;98194.78;5049023;28;20485;-59
2023/10/14 11:51:11;;;;;;;5.65;3.33;;;;;;;26.53;36.17;98174.94;5048974;28;20189;-58
2023/10/14 11:53:41;;;;;;;4.47;3.38;;;;;;;26.58;36.83;98177.81;5049086;28;20185;-59
2023/10/14 11:56:07;;;;;;;13.13;3.50;;;;;;;26.72;36.16;98187.38;5049053;28;20173;-60
2023/10/14 11:58:37;;;;;;;5.40;3.55;;;;;;;26.46;36.46;98146.81;5048922;28;20278;-59
2023/10/14 12:01:04;;;;;;;7.57;3.33;;;;;;;26.72;35.69;98167.94;5048746;28;20318;-59
2023/10/14 12:03:29;;;;;;;5.07;2.97;;;;;;;26.78;36.19;98175.91;5048042;28;20227;-59
2023/10/14 12:05:59;;;;;;;10.13;3.75;;;;;;;26.82;36.47;98163.00;5048871;28;20200;-59
2023/10/14 12:08:25;;;;;;;3.97;2.97;;;;;;;26.78;35.53;98161.78;5048793;28;20196;-59
2023/10/14 12:10:52;;;;;;;9.20;3.55;;;;;;;26.75;35.88;98156.88;5048710;28;20189;-59
2023/10/14 12:13:18;;;;;;;7.93;3.88;;;;;;;26.62;35.85;98133.91;5048611;28;20332;-59
2023/10/14 12:15:44;;;;;;;5.75;2.90;;;;;;;26.53;35.87;98121.84;5048637;28;20328;-59
2023/10/14 12:18:13;;;;;;;7.68;3.47;;;;;;;26.64;35.68;98145.13;5048705;28;20189;-59
2023/10/14 12:20:40;;;;;;;6.88;3.20;;;;;;;26.41;35.58;98118.25;5048474;28;20291;-59
2023/10/14 12:23:06;;;;;;;7.05;3.53;;;;;;;26.44;36.62;98131.13;5067165;28;20187;-59